Time;durP1;ratioP1;P1;durP2;ratioP2;P2;SDS_P1;SDS_P2;PMS_P1;PMS_P2;Temp;Humidity;BMP_temperature;BMP_pressure;BME280_temperature;BME280_humidity;BME280_pressure;Samples;Min_cycle;Max_cycle;Signal;HPM_P1;HPM_P2
2022/05/21 00:03:03;;;;;;;2.80;2.00;;;;;;;18.32;73.88;98184.91;219551;1270;22862;-70
2022/05/21 00:08:10;;;;;;;5.00;2.30;;;;;;;18.21;73.87;98171.21;220255;1270;24334;-69
2022/05/21 00:13:15;;;;;;;3.60;2.40;;;;;;;18.13;74.16;98173.35;220406;1270;370983;-70
2022/05/21 00:18:19;;;;;;;2.50;2.10;;;;;;;18.08;74.28;98175.55;219592;1270;24221;-70
2022/05/21 00:23:28;;;;;;;3.10;2.40;;;;;;;18.05;74.28;98178.52;219691;1270;24776;-70
2022/05/21 00:28:32;;;;;;;4.70;2.10;;;;;;;18.03;73.81;98185.59;222498;1270;26277;-70
2022/05/21 00:33:36;;;;;;;6.30;3.00;;;;;;;17.98;73.92;98179.90;221358;1270;24232;-71
2022/05/21 00:38:44;;;;;;;6.10;3.50;;;;;;;17.93;74.25;98181.64;222348;1270;24155;-70
2022/05/21 00:44:20;;;;;;;6.10;3.80;;;;;;;17.87;74.02;98188.76;221681;1270;23471;-69
2022/05/21 00:49:36;;;;;;;5.50;3.60;;;;;;;17.81;74.30;98189.45;220054;1270;23865;-70
2022/05/21 00:54:46;;;;;;;6.30;4.00;;;;;;;17.74;73.99;98192.23;219924;1270;22532;-70
2022/05/21 00:59:56;;;;;;;7.30;3.90;;;;;;;17.70;74.23;98207.92;219769;1270;22528;-71
2022/05/21 01:05:02;;;;;;;7.50;4.40;;;;;;;17.68;74.56;98220.47;222142;1270;22633;-71
2022/05/21 01:10:05;;;;;;;7.10;4.20;;;;;;;17.65;74.79;98221.89;221334;1270;23015;-70
2022/05/21 01:15:15;;;;;;;6.40;4.20;;;;;;;17.63;74.88;98240.49;219525;1270;22551;-70
2022/05/21 01:20:22;;;;;;;5.60;4.20;;;;;;;17.62;75.00;98242.55;220743;1270;22559;-70
2022/05/21 01:25:26;;;;;;;5.90;3.10;;;;;;;17.62;75.52;98233.42;220234;1270;23162;-70
2022/05/21 01:30:58;;;;;;;6.00;2.90;;;;;;;17.62;75.70;98215.79;220114;1270;24786;-71
2022/05/21 01:36:14;;;;;;;3.30;2.60;;;;;;;17.60;75.56;98206.84;219666;1271;22976;-70
2022/05/21 01:41:21;;;;;;;;;;;;;;;17.57;76.10;98207.85;220264;1270;26104;-71
2022/05/21 01:46:27;;;;;;;3.40;2.00;;;;;;;17.54;76.07;98207.77;219680;1270;22598;-70
2022/05/21 01:51:39;;;;;;;3.10;2.60;;;;;;;17.50;75.75;98206.41;220155;1270;22717;-70
2022/05/21 01:56:44;;;;;;;2.40;2.00;;;;;;;17.44;75.96;98199.48;219738;1270;25367;-70
2022/05/21 02:02:09;;;;;;;3.10;2.10;;;;;;;17.42;76.13;98212.05;221176;1271;26436;-70
2022/05/21 02:07:17;;;;;;;3.80;2.20;;;;;;;17.45;76.02;98227.81;221490;1270;26397;-71
2022/05/21 02:12:19;;;;;;;2.80;2.00;;;;;;;17.48;75.94;98227.41;221606;1270;23924;-70
2022/05/21 02:17:23;;;;;;;3.00;2.00;;;;;;;17.49;75.78;98222.19;221176;1270;22543;-71
2022/05/21 02:22:27;;;;;;;4.10;2.20;;;;;;;17.50;75.52;98220.52;221828;1271;25222;-71
2022/05/21 02:27:41;;;;;;;2.60;2.10;;;;;;;17.51;75.00;98219.20;221606;1270;27544;-71
2022/05/21 02:32:43;;;;;;;3.60;1.70;;;;;;;17.53;74.84;98223.36;221343;1270;25310;-70
2022/05/21 02:43:30;;;;;;;1.90;1.60;;;;;;;17.62;74.58;98214.39;219703;1270;23126;-70
2022/05/21 02:48:33;;;;;;;3.60;2.20;;;;;;;17.65;74.38;98208.89;219599;1270;23842;-70
2022/05/21 02:53:36;;;;;;;6.20;2.30;;;;;;;17.68;74.31;98205.71;219560;1270;22554;-70
2022/05/21 02:58:44;;;;;;;3.90;2.30;;;;;;;17.72;74.12;98205.05;221796;1270;23206;-70
2022/05/21 03:03:52;;;;;;;4.20;2.60;;;;;;;17.75;73.82;98205.65;221552;1271;24083;-70
2022/05/21 03:14:37;;;;;;;5.60;2.30;;;;;;;17.79;73.65;98212.56;222489;1270;22543;-71
2022/05/21 03:19:42;;;;;;;4.00;2.30;;;;;;;17.84;73.40;98208.70;221269;1270;22548;-70
2022/05/21 03:25:11;;;;;;;3.30;2.10;;;;;;;17.87;73.48;98213.68;221626;1270;22567;-70
2022/05/21 03:30:36;;;;;;;3.40;2.20;;;;;;;17.90;73.23;98211.84;221261;1270;25554;-71
2022/05/21 03:36:16;;;;;;;4.60;2.20;;;;;;;17.93;73.10;98208.52;221532;1270;22817;-71
2022/05/21 03:41:54;;;;;;;5.10;2.40;;;;;;;17.98;73.04;98211.73;221340;1270;22640;-71
2022/05/21 03:48:02;;;;;;;2.60;2.40;;;;;;;18.05;72.83;98224.52;221371;1271;25258;-71
2022/05/21 03:53:34;;;;;;;;;;;;;;;;;;;;;
2022/05/21 03:59:18;;;;;;;5.20;2.40;;;;;;;18.19;72.68;98226.76;221336;1271;22638;-70
2022/05/21 04:05:47;;;;;;;2.90;2.00;;;;;;;18.25;72.43;98232.87;221446;1271;23284;-71
2022/05/21 04:11:19;;;;;;;4.10;2.60;;;;;;;18.30;72.29;98246.60;221957;1270;22634;-71
2022/05/21 04:17:12;;;;;;;4.20;2.80;;;;;;;18.32;72.36;98252.77;221465;1271;25435;-71
2022/05/21 04:22:25;;;;;;;3.30;2.50;;;;;;;18.29;72.48;98260.30;221612;1271;22572;-71
2022/05/21 04:28:03;;;;;;;7.40;2.70;;;;;;;18.26;72.75;98265.75;221508;1270;25434;-69
2022/05/21 04:33:26;;;;;;;4.50;2.60;;;;;;;18.15;73.21;98273.98;219308;1271;22546;-70
2022/05/21 04:38:43;;;;;;;4.50;3.00;;;;;;;17.97;73.78;98281.46;219453;1271;25398;-70
2022/05/21 04:43:55;;;;;;;4.60;3.10;;;;;;;17.85;74.40;98291.27;221442;1270;22693;-69
2022/05/21 04:49:01;;;;;;;7.80;3.50;;;;;;;17.78;74.86;98300.38;220026;1270;22576;-71
2022/05/21 04:54:11;;;;;;;4.80;2.80;;;;;;;17.72;75.58;98306.90;220408;1271;22544;-71
2022/05/21 04:59:17;;;;;;;4.70;2.90;;;;;;;17.69;76.19;98308.05;221562;1271;22710;-71
2022/05/21 05:04:21;;;;;;;4.60;3.10;;;;;;;17.76;76.58;98311.32;221091;1271;22611;-71
2022/05/21 05:09:43;;;;;;;4.80;3.10;;;;;;;17.90;76.74;98312.06;221236;1271;22596;-71
2022/05/21 05:15:21;;;;;;;6.40;3.00;;;;;;;18.11;76.98;98311.06;221690;1271;23259;-71
2022/05/21 05:20:27;;;;;;;4.30;3.00;;;;;;;18.32;76.96;98310.41;221685;1272;24192;-71
2022/05/21 05:25:33;;;;;;;4.40;3.00;;;;;;;18.54;76.84;98322.00;221944;1270;24227;-71
2022/05/21 05:30:42;;;;;;;4.70;2.50;;;;;;;18.78;76.14;98333.02;221141;1271;22715;-71
2022/05/21 05:35:52;;;;;;;3.20;2.20;;;;;;;19.14;74.66;98327.97;221398;1271;22648;-72
2022/05/21 05:41:23;;;;;;;;;;;;;;;;;;;;;
2022/05/21 05:46:27;;;;;;;3.00;2.50;;;;;;;19.31;71.00;98333.30;222155;1271;24192;-71
2022/05/21 05:51:30;;;;;;;4.30;2.60;;;;;;;19.41;70.52;98337.28;221711;1271;22566;-71
2022/05/21 05:56:37;;;;;;;3.70;2.70;;;;;;;19.54;69.80;98346.32;221207;1271;22601;-71
2022/05/21 06:02:57;;;;;;;6.40;2.80;;;;;;;19.54;68.81;98361.28;221049;1271;22582;-71
2022/05/21 06:07:15;;;;;;;3.10;2.00;;;;;;;19.19;66.05;98382.08;221306;1271;25666;-72
2022/05/21 06:12:28;;;;;;;2.70;1.90;;;;;;;18.82;65.05;98396.90;220968;1271;22547;-72
2022/05/21 06:17:31;;;;;;;2.20;2.00;;;;;;;18.51;64.79;98408.64;222137;1271;22676;-71
2022/05/21 06:22:34;;;;;;;2.60;1.70;;;;;;;18.44;65.49;98412.42;221230;1271;22834;-71
2022/05/21 06:27:47;;;;;;;1.80;1.40;;;;;;;18.59;65.15;98426.98;222539;1271;22541;-70
2022/05/21 06:32:50;;;;;;;1.50;1.10;;;;;;;18.60;63.22;98430.96;221387;1272;22567;-70
2022/05/21 06:37:52;;;;;;;1.20;0.80;;;;;;;18.59;61.25;98437.30;219511;1271;22692;-71
2022/05/21 06:42:54;;;;;;;1.00;0.70;;;;;;;18.68;59.43;98442.70;219652;1272;22635;-69
2022/05/21 06:48:02;;;;;;;2.10;0.60;;;;;;;18.78;57.44;98461.91;219167;1271;22563;-72
2022/05/21 06:53:04;;;;;;;1.20;0.40;;;;;;;18.98;53.95;98474.61;224301;1271;25404;-67
2022/05/21 06:58:11;;;;;;;1.00;0.20;;;;;;;19.07;52.24;98491.32;219361;1271;22922;-67
2022/05/21 07:03:20;;;;;;;0.90;0.50;;;;;;;18.94;50.87;98491.16;219402;1271;22761;-69
2022/05/21 07:08:30;;;;;;;3.20;0.30;;;;;;;18.76;51.72;98492.81;219497;1271;24338;-67
2022/05/21 07:13:53;;;;;;;0.70;0.30;;;;;;;18.75;52.09;98492.55;219553;1271;22635;-68
2022/05/21 07:19:00;;;;;;;1.20;0.20;;;;;;;18.85;52.18;98496.60;219475;1271;22708;-67
2022/05/21 07:24:09;;;;;;;1.10;0.60;;;;;;;19.05;51.13;98505.02;219416;1270;22553;-68
2022/05/21 07:29:34;;;;;;;4.60;0.40;;;;;;;19.31;48.76;98508.17;219402;1271;22543;-67
2022/05/21 07:34:37;;;;;;;3.80;0.80;;;;;;;19.40;48.24;98523.59;219484;1271;27531;-67
2022/05/21 07:39:40;;;;;;;1.20;0.40;;;;;;;19.41;47.98;98531.91;219516;1270;23108;-68
2022/05/21 07:44:49;;;;;;;1.40;0.20;;;;;;;19.36;46.72;98537.86;219488;1270;24222;-67
2022/05/21 07:49:56;;;;;;;0.40;0.30;;;;;;;19.22;46.20;98537.36;219714;1271;22547;-68
2022/05/21 07:55:00;;;;;;;3.10;0.40;;;;;;;19.27;46.97;98551.08;219482;1270;24075;-68
2022/05/21 08:00:05;;;;;;;1.00;0.40;;;;;;;19.41;46.06;98554.81;219432;1270;25328;-67
2022/05/21 08:05:26;;;;;;;4.90;0.50;;;;;;;19.38;46.26;98545.88;219802;1270;25237;-67
2022/05/21 08:10:57;;;;;;;1.40;0.50;;;;;;;19.31;46.43;98550.45;219531;1270;22816;-67
2022/05/21 08:16:00;;;;;;;1.90;0.30;;;;;;;19.18;46.27;98540.05;219334;1271;25337;-67
2022/05/21 08:21:15;;;;;;;0.50;0.30;;;;;;;19.15;46.88;98539.86;219373;1270;24236;-68
2022/05/21 08:31:45;;;;;;;0.70;0.40;;;;;;;19.53;47.00;98548.57;219466;1270;23795;-66
2022/05/21 08:37:00;;;;;;;5.50;0.60;;;;;;;19.69;46.60;98540.06;220843;1270;22683;-66
2022/05/21 08:42:39;;;;;;;2.10;0.40;;;;;;;19.78;46.15;98543.14;219512;1270;24121;-66
2022/05/21 08:47:51;;;;;;;3.10;0.80;;;;;;;19.87;46.29;98547.92;225800;1270;24409;-66
2022/05/21 08:53:06;;;;;;;2.60;0.60;;;;;;;20.04;45.99;98555.27;219213;1270;25412;-67
2022/05/21 08:58:46;;;;;;;0.40;0.40;;;;;;;20.06;45.44;98554.30;219541;1271;22723;-68
2022/05/21 09:03:58;;;;;;;1.20;0.50;;;;;;;20.12;45.43;98552.80;219456;1270;22547;-66
2022/05/21 09:09:10;;;;;;;0.60;0.30;;;;;;;20.27;45.97;98546.96;219624;1270;25553;-67
2022/05/21 09:14:31;;;;;;;0.60;0.40;;;;;;;20.43;45.77;98555.42;220075;1270;22532;-67
2022/05/21 09:19:39;;;;;;;1.40;0.40;;;;;;;20.41;44.95;98551.13;219381;1270;24827;-67
2022/05/21 09:25:08;;;;;;;0.50;0.50;;;;;;;20.25;44.80;98555.31;219455;1271;24348;-66
2022/05/21 09:30:23;;;;;;;1.90;0.40;;;;;;;20.44;44.85;98542.85;219706;1270;25223;-66
2022/05/21 09:35:34;;;;;;;1.30;0.70;;;;;;;20.72;44.95;98544.70;219601;1270;22866;-67
2022/05/21 09:40:39;;;;;;;1.10;0.50;;;;;;;20.94;44.11;98549.36;221472;1269;22556;-67
2022/05/21 09:45:44;;;;;;;1.90;0.40;;;;;;;21.13;43.86;98547.42;219704;1270;25319;-68
2022/05/21 09:50:51;;;;;;;1.80;0.70;;;;;;;21.06;43.25;98558.05;220239;1270;22591;-67
2022/05/21 09:56:06;;;;;;;2.00;0.80;;;;;;;21.28;43.36;98557.00;219769;1270;22571;-67
2022/05/21 10:01:14;;;;;;;1.80;0.40;;;;;;;21.65;43.05;98561.45;221881;1270;22702;-68
2022/05/21 10:06:54;;;;;;;0.50;0.50;;;;;;;21.91;42.27;98561.73;221471;1270;24368;-67
2022/05/21 10:12:04;;;;;;;1.30;0.60;;;;;;;22.00;42.23;98555.40;223512;1269;22717;-67
2022/05/21 10:17:21;;;;;;;1.10;0.40;;;;;;;21.85;40.98;98557.61;222111;1270;24214;-64
2022/05/21 10:22:49;;;;;;;2.00;0.80;;;;;;;21.58;41.45;98557.02;219789;1270;24764;-66
2022/05/21 10:28:21;;;;;;;0.90;0.80;;;;;;;21.63;41.56;98560.73;219813;1270;22680;-67
2022/05/21 10:33:36;;;;;;;1.60;0.80;;;;;;;21.62;41.45;98554.89;220699;1270;25319;-66
2022/05/21 10:39:31;;;;;;;0.50;0.50;;;;;;;21.36;40.96;98567.47;220130;1270;23034;-66
2022/05/21 10:44:59;;;;;;;0.40;0.40;;;;;;;21.05;42.54;98561.54;223196;1269;26537;-66
2022/05/21 10:50:18;;;;;;;0.70;0.60;;;;;;;21.29;42.63;98569.85;221258;1270;22668;-67
2022/05/21 10:55:54;;;;;;;0.80;0.50;;;;;;;21.40;42.00;98583.33;220960;1270;22691;-67
2022/05/21 11:01:34;;;;;;;1.10;0.60;;;;;;;21.15;42.39;98575.39;220611;1270;22534;-66
2022/05/21 11:07:19;;;;;;;2.00;0.70;;;;;;;20.72;43.38;98579.46;219776;1270;22546;-69
2022/05/21 11:13:17;;;;;;;2.00;0.50;;;;;;;20.99;43.66;98586.48;219744;1270;23846;-69
2022/05/21 11:18:47;;;;;;;1.00;0.80;;;;;;;21.17;42.79;98593.23;219790;1271;23918;-69
2022/05/21 11:24:15;;;;;;;0.90;0.70;;;;;;;20.85;42.89;98589.05;221869;1270;22579;-68
2022/05/21 11:29:52;;;;;;;2.60;1.00;;;;;;;20.94;43.63;98584.52;219888;1270;24176;-68
2022/05/21 11:41:27;;;;;;;1.40;0.40;;;;;;;21.03;42.01;98589.66;219966;1270;22630;-69
2022/05/21 11:52:27;;;;;;;1.60;0.60;;;;;;;20.91;42.70;98597.61;221120;1270;22611;-68
2022/05/21 11:57:37;;;;;;;1.70;0.70;;;;;;;21.20;41.73;98592.44;220454;1270;25383;-69
2022/05/21 12:03:17;;;;;;;3.30;0.60;;;;;;;21.35;41.87;98589.09;221086;1270;22566;-68
2022/05/21 12:08:35;;;;;;;2.30;0.50;;;;;;;21.38;41.36;98600.66;220455;1270;22865;-68
2022/05/21 12:14:16;;;;;;;1.90;0.70;;;;;;;21.09;40.86;98594.27;221068;1270;262739;-69
2022/05/21 12:19:58;;;;;;;1.90;0.60;;;;;;;20.71;41.44;98597.40;220266;1270;25568;-69
2022/05/21 12:25:31;;;;;;;0.70;0.60;;;;;;;20.72;42.15;98601.70;218952;1276;22822;-69
2022/05/21 12:30:37;;;;;;;0.80;0.50;;;;;;;21.03;41.12;98597.52;219727;1270;22918;-68
2022/05/21 12:36:06;;;;;;;2.00;0.70;;;;;;;21.25;40.99;98593.77;220121;1270;22619;-69
2022/05/21 12:41:39;;;;;;;1.30;0.70;;;;;;;21.32;40.35;98599.02;220179;1271;24669;-69
2022/05/21 12:46:48;;;;;;;2.10;0.70;;;;;;;21.23;40.38;98598.23;220122;1270;22578;-71
2022/05/21 12:51:54;;;;;;;0.70;0.70;;;;;;;21.32;40.72;98597.99;220707;1270;22584;-69
2022/05/21 12:57:12;;;;;;;0.90;0.60;;;;;;;21.47;40.56;98604.41;220420;1271;22562;-68
2022/05/21 13:02:20;;;;;;;0.80;0.70;;;;;;;21.74;40.48;98606.92;220575;1271;22658;-69
2022/05/21 13:07:27;;;;;;;1.80;0.70;;;;;;;21.92;39.65;98606.24;220291;1271;22616;-69
2022/05/21 13:12:39;;;;;;;2.70;0.50;;;;;;;21.97;39.30;98604.20;220436;1270;22702;-68
2022/05/21 13:18:13;;;;;;;1.00;0.50;;;;;;;21.97;39.08;98602.17;219964;1270;22734;-69
2022/05/21 13:23:42;;;;;;;2.50;1.00;;;;;;;21.73;39.40;98598.42;219806;1270;22549;-69
2022/05/21 13:28:49;;;;;;;0.60;0.60;;;;;;;21.33;38.97;98613.81;219626;1270;22577;-69
2022/05/21 13:33:53;;;;;;;3.50;0.70;;;;;;;21.00;39.81;98609.91;221506;1270;22723;-68
2022/05/21 13:38:59;;;;;;;0.50;0.50;;;;;;;21.03;40.77;98610.44;220619;1270;22644;-68
2022/05/21 13:44:20;;;;;;;1.90;0.60;;;;;;;21.09;40.55;98603.91;220013;1270;22650;-69
2022/05/21 13:49:30;;;;;;;1.10;0.50;;;;;;;21.29;40.71;98605.36;219735;1270;22550;-69
2022/05/21 13:54:38;;;;;;;6.40;1.00;;;;;;;21.46;40.34;98603.14;221866;1270;22591;-68
2022/05/21 13:59:53;;;;;;;1.60;0.80;;;;;;;21.33;40.08;98605.50;221085;1270;22548;-69
2022/05/21 14:04:59;;;;;;;1.30;0.50;;;;;;;21.19;40.12;98607.83;221625;1270;24286;-68
2022/05/21 14:10:10;;;;;;;0.70;0.50;;;;;;;21.29;40.22;98611.73;220271;1271;22599;-68
2022/05/21 14:15:45;;;;;;;0.80;0.60;;;;;;;21.43;40.03;98613.83;222094;1270;25847;-71
2022/05/21 14:21:03;;;;;;;1.10;0.70;;;;;;;21.25;39.37;98616.11;220173;1271;22560;-69
2022/05/21 14:26:33;;;;;;;2.40;0.50;;;;;;;20.94;39.09;98619.14;220533;1270;26458;-69
2022/05/21 14:32:19;;;;;;;0.60;0.50;;;;;;;20.70;39.71;98613.58;220390;1270;22500;-70
2022/05/21 14:37:33;;;;;;;0.80;0.50;;;;;;;20.50;39.28;98628.70;219672;1270;22531;-69
2022/05/21 14:42:38;;;;;;;0.40;0.40;;;;;;;20.35;39.09;98634.16;219809;1270;25403;-69
2022/05/21 14:47:54;;;;;;;4.10;0.90;;;;;;;20.27;39.03;98641.60;219929;1270;25254;-68
2022/05/21 14:53:01;;;;;;;0.50;0.50;;;;;;;20.07;38.90;98637.53;219935;1271;22551;-69
2022/05/21 14:58:17;;;;;;;5.60;0.60;;;;;;;19.88;39.41;98634.54;220240;1271;24330;-69
2022/05/21 15:03:40;;;;;;;1.70;0.70;;;;;;;19.93;39.79;98636.90;220805;1270;24196;-68
2022/05/21 15:08:42;;;;;;;1.80;0.40;;;;;;;20.03;39.81;98637.20;219932;1270;25547;-69
2022/05/21 15:13:46;;;;;;;0.90;0.40;;;;;;;20.00;39.22;98635.98;219681;1270;25367;-69
2022/05/21 15:18:51;;;;;;;1.00;0.60;;;;;;;19.82;39.17;98634.02;219986;1270;25212;-69
2022/05/21 15:24:06;;;;;;;0.70;0.50;;;;;;;19.65;39.25;98630.65;221087;1270;26575;-68
2022/05/21 15:29:47;;;;;;;0.70;0.50;;;;;;;19.60;38.99;98625.26;219691;1270;23847;-69
2022/05/21 15:35:18;;;;;;;0.50;0.50;;;;;;;19.52;39.03;98622.88;220852;1270;22544;-70
2022/05/21 15:40:38;;;;;;;0.90;0.30;;;;;;;19.46;39.30;98617.55;219828;1270;24818;-68
2022/05/21 15:45:50;;;;;;;1.00;0.60;;;;;;;19.43;39.09;98611.27;220034;1270;22729;-68
2022/05/21 15:51:07;;;;;;;0.90;0.40;;;;;;;19.33;39.17;98609.86;220415;1270;25058;-69
2022/05/21 15:56:21;;;;;;;0.60;0.50;;;;;;;19.26;39.20;98604.52;220752;1270;25574;-69
2022/05/21 16:01:31;;;;;;;1.10;0.60;;;;;;;19.21;39.04;98608.16;219570;1270;24226;-69
2022/05/21 16:06:34;;;;;;;;;;;;;;;19.18;38.97;98600.05;220264;1270;25199;-69
2022/05/21 16:11:37;;;;;;;0.40;0.40;;;;;;;19.20;39.16;98602.40;220116;1271;22547;-69
2022/05/21 16:16:40;;;;;;;2.00;1.00;;;;;;;19.24;39.28;98597.09;220393;1270;22530;-68
2022/05/21 16:22:06;;;;;;;0.90;0.50;;;;;;;19.26;39.29;98593.79;219987;1270;22644;-69
2022/05/21 16:27:12;;;;;;;1.20;0.80;;;;;;;19.26;39.23;98587.05;220221;1270;22810;-68
2022/05/21 16:32:20;;;;;;;0.40;0.40;;;;;;;19.35;39.18;98585.86;219890;1269;22554;-69
2022/05/21 16:37:26;;;;;;;1.00;0.50;;;;;;;19.44;39.02;98580.56;220548;1270;22707;-69
2022/05/21 16:42:31;;;;;;;1.60;0.60;;;;;;;19.59;38.76;98582.21;219954;1270;22652;-68
2022/05/21 16:47:33;;;;;;;0.90;0.70;;;;;;;19.61;38.91;98568.83;220185;1271;25252;-69
2022/05/21 16:52:51;;;;;;;1.10;1.00;;;;;;;19.59;39.16;98573.84;220543;1270;22705;-68
2022/05/21 16:58:01;;;;;;;0.80;0.40;;;;;;;19.48;38.82;98573.42;220329;1271;22566;-69
2022/05/21 17:03:15;;;;;;;1.20;0.70;;;;;;;19.30;39.02;98568.52;219925;1270;22525;-69
2022/05/21 17:08:22;;;;;;;2.70;0.60;;;;;;;19.22;39.23;98565.61;219870;1270;22557;-68
2022/05/21 17:13:58;;;;;;;1.20;0.90;;;;;;;19.15;39.50;98565.05;219791;1270;22533;-69
2022/05/21 17:19:01;;;;;;;1.80;1.20;;;;;;;19.14;39.97;98570.77;219849;1270;25440;-69
2022/05/21 17:24:07;;;;;;;3.50;1.20;;;;;;;19.04;39.99;98563.46;219713;1270;25304;-69
2022/05/21 17:34:31;;;;;;;3.40;1.50;;;;;;;18.72;40.43;98563.31;219588;1270;25291;-68
2022/05/21 17:39:53;;;;;;;2.10;1.20;;;;;;;18.48;40.48;98559.98;219777;1270;25448;-69
2022/05/21 17:45:21;;;;;;;1.20;0.90;;;;;;;18.23;40.85;98567.18;219725;1270;22712;-68
2022/05/21 17:50:33;;;;;;;2.10;1.20;;;;;;;18.02;41.09;98561.59;219966;1269;25278;-69
2022/05/21 17:55:38;;;;;;;1.10;0.80;;;;;;;17.83;41.40;98562.16;220098;1271;22531;-68
2022/05/21 18:00:41;;;;;;;3.30;0.70;;;;;;;17.68;41.77;98558.60;220391;1271;24239;-68
2022/05/21 18:05:50;;;;;;;1.50;0.70;;;;;;;17.51;42.09;98563.05;219816;1270;22639;-68
2022/05/21 18:10:52;;;;;;;2.10;1.00;;;;;;;17.34;42.47;98561.52;219701;1270;26057;-68
2022/05/21 18:21:18;;;;;;;1.60;1.00;;;;;;;17.08;43.33;98566.94;220775;1270;22713;-67
2022/05/21 18:26:53;;;;;;;2.10;0.90;;;;;;;17.00;43.56;98574.94;220346;1270;22567;-69
2022/05/21 18:32:07;;;;;;;2.40;1.20;;;;;;;16.87;43.99;98579.16;219878;1270;24106;-69
2022/05/21 18:37:11;;;;;;;1.70;1.20;;;;;;;16.78;44.53;98590.70;220497;1270;24227;-69
2022/05/21 18:42:34;;;;;;;2.00;0.80;;;;;;;16.67;44.73;98591.44;220423;1271;22564;-68
2022/05/21 18:47:40;;;;;;;1.50;0.90;;;;;;;16.58;44.79;98594.20;220443;1271;24220;-69
2022/05/21 18:52:50;;;;;;;2.40;1.20;;;;;;;16.46;45.06;98602.52;219823;1270;22559;-68
2022/05/21 18:57:59;;;;;;;1.50;1.00;;;;;;;16.32;45.48;98604.16;219661;1272;23812;-68
2022/05/21 19:03:01;;;;;;;2.30;1.10;;;;;;;16.18;45.67;98604.96;220303;1269;22629;-69
2022/05/21 19:08:07;;;;;;;1.50;1.20;;;;;;;16.00;46.00;98612.27;219871;1270;24058;-69
2022/05/21 19:13:11;;;;;;;1.20;1.10;;;;;;;15.81;46.30;98613.89;220163;1270;24257;-69
2022/05/21 19:23:46;;;;;;;2.80;1.20;;;;;;;15.48;47.14;98618.73;219886;1270;22561;-69
2022/05/21 19:28:52;;;;;;;1.80;1.30;;;;;;;15.34;47.36;98620.23;220255;1270;22559;-69
2022/05/21 19:34:05;;;;;;;2.40;1.00;;;;;;;15.19;47.60;98622.04;220781;1270;23066;-70
2022/05/21 19:44:44;;;;;;;;;;;;;;;14.97;48.23;98624.26;220252;1270;23070;-68
2022/05/21 19:49:48;;;;;;;1.20;1.10;;;;;;;14.91;48.27;98625.16;220064;1270;22538;-68
2022/05/21 19:54:50;;;;;;;1.40;1.00;;;;;;;14.83;48.57;98623.45;220531;1271;22541;-69
2022/05/21 19:59:59;;;;;;;2.50;1.50;;;;;;;14.76;48.79;98631.02;220497;1270;22560;-69
2022/05/21 20:05:05;;;;;;;3.30;1.20;;;;;;;14.67;48.97;98627.55;219748;1270;23192;-68
2022/05/21 20:10:08;;;;;;;1.80;0.90;;;;;;;14.63;48.89;98633.44;220047;1270;22721;-69
2022/05/21 20:15:14;;;;;;;1.30;0.90;;;;;;;14.64;48.86;98628.80;220685;1270;22554;-68
2022/05/21 20:20:22;;;;;;;2.00;0.80;;;;;;;14.66;48.86;98632.88;219538;1270;22537;-69
2022/05/21 20:25:25;;;;;;;1.40;1.00;;;;;;;14.66;48.88;98634.83;219645;1270;22567;-69
2022/05/21 20:30:27;;;;;;;0.80;0.70;;;;;;;14.67;48.98;98640.71;219643;1271;22726;-68
2022/05/21 20:35:37;;;;;;;2.90;1.00;;;;;;;14.67;49.19;98639.25;220423;1270;25532;-69
2022/05/21 20:41:08;;;;;;;2.70;1.10;;;;;;;14.71;49.26;98638.95;220092;1269;22685;-67
2022/05/21 20:46:16;;;;;;;1.30;1.10;;;;;;;14.74;49.26;98639.41;220599;1270;26481;-69
2022/05/21 20:51:19;;;;;;;2.00;1.00;;;;;;;14.75;49.21;98641.81;220232;1269;23407;-68
2022/05/21 20:56:21;;;;;;;1.40;0.80;;;;;;;14.77;49.29;98638.89;219461;1270;22604;-68
2022/05/21 21:01:24;;;;;;;2.30;1.10;;;;;;;14.79;49.34;98637.94;219880;1270;22631;-69
2022/05/21 21:06:35;;;;;;;1.20;0.80;;;;;;;14.79;49.36;98640.25;220227;1270;25212;-69
2022/05/21 21:11:38;;;;;;;3.50;1.00;;;;;;;14.76;49.44;98649.33;220175;1270;25215;-68
2022/05/21 21:16:43;;;;;;;1.60;0.80;;;;;;;14.66;49.71;98647.61;220368;1270;25400;-69
2022/05/21 21:21:46;;;;;;;1.00;0.80;;;;;;;14.55;49.87;98650.05;219788;1271;22615;-68
2022/05/21 21:26:49;;;;;;;1.70;0.80;;;;;;;14.48;50.11;98652.73;219722;1271;22475;-69
2022/05/21 21:31:51;;;;;;;1.30;0.70;;;;;;;14.39;50.65;98656.02;219432;1271;22534;-69
2022/05/21 21:36:54;;;;;;;1.90;1.00;;;;;;;14.34;50.95;98659.41;220152;1270;25445;-68
2022/05/21 21:41:59;;;;;;;1.70;0.90;;;;;;;14.32;51.25;98659.03;219628;1270;22956;-69
2022/05/21 21:47:01;;;;;;;2.20;1.00;;;;;;;14.32;51.62;98658.15;219368;1271;22559;-67
2022/05/21 21:52:04;;;;;;;3.20;0.90;;;;;;;14.31;52.01;98657.52;219606;1271;22748;-68
2022/05/21 21:57:12;;;;;;;1.70;0.90;;;;;;;14.30;52.47;98656.38;219993;1271;25105;-69
2022/05/21 22:02:14;;;;;;;1.80;0.90;;;;;;;14.26;52.70;98657.19;219298;1271;22625;-69
2022/05/21 22:07:33;;;;;;;3.10;1.10;;;;;;;14.21;52.87;98656.58;220167;1271;25296;-70
2022/05/21 22:12:36;;;;;;;1.50;1.00;;;;;;;14.15;53.17;98657.07;220502;1271;25334;-69
2022/05/21 22:17:39;;;;;;;6.50;1.10;;;;;;;14.06;53.37;98653.98;219950;1271;22542;-67
2022/05/21 22:22:41;;;;;;;2.20;1.00;;;;;;;13.96;53.61;98652.67;219873;1271;25374;-68
2022/05/21 22:27:55;;;;;;;1.70;0.80;;;;;;;13.84;54.11;98656.81;219933;1272;22560;-68
2022/05/21 22:33:07;;;;;;;2.30;1.20;;;;;;;13.69;54.55;98651.73;219512;1271;24222;-68
2022/05/21 22:38:10;;;;;;;1.10;0.90;;;;;;;13.59;55.21;98652.41;220086;1271;24263;-69
2022/05/21 22:43:35;;;;;;;2.00;1.20;;;;;;;13.50;55.52;98648.13;219732;1271;22533;-68
2022/05/21 22:49:09;;;;;;;;;;;;;;;;;;;;;
2022/05/21 22:54:41;;;;;;;2.10;1.20;;;;;;;13.25;56.36;98640.67;219567;1271;22577;-69
2022/05/21 22:59:52;;;;;;;2.70;1.10;;;;;;;13.12;56.58;98634.42;219470;1271;23736;-69
2022/05/21 23:04:58;;;;;;;2.00;1.10;;;;;;;13.04;56.84;98635.84;220371;1271;24156;-69
2022/05/21 23:10:01;;;;;;;3.20;1.60;;;;;;;12.98;56.97;98629.33;219802;1271;23487;-68
2022/05/21 23:20:28;;;;;;;2.00;1.20;;;;;;;12.84;57.28;98618.10;219979;1273;22595;-69
2022/05/21 23:25:31;;;;;;;5.30;1.30;;;;;;;12.75;57.67;98614.77;220049;1271;26220;-69
2022/05/21 23:30:34;;;;;;;1.90;1.40;;;;;;;12.69;57.94;98616.81;219231;1270;25317;-70
2022/05/21 23:35:37;;;;;;;3.40;1.40;;;;;;;12.65;58.45;98611.80;219100;1273;23892;-69
2022/05/21 23:40:43;;;;;;;3.40;1.60;;;;;;;12.64;58.67;98608.42;219647;1271;22719;-68
2022/05/21 23:45:55;;;;;;;3.50;1.60;;;;;;;12.61;58.92;98612.04;219574;1271;23035;-69
2022/05/21 23:51:04;;;;;;;2.30;1.70;;;;;;;12.61;59.07;98611.13;219815;1270;22613;-68
2022/05/21 23:56:24;;;;;;;2.90;2.00;;;;;;;12.63;59.21;98603.77;220100;1271;22542;-68
